createdAt,value
2023-03-06T00:09:08.297Z,2.6
2023-03-06T00:19:08.273Z,2.5
2023-03-06T00:29:08.267Z,2.4
2023-03-06T00:39:08.204Z,2.3
2023-03-06T00:49:08.219Z,2.3
2023-03-06T00:59:08.165Z,2.2
2023-03-06T01:09:08.127Z,2.2
2023-03-06T01:19:08.103Z,2.3
2023-03-06T01:29:08.085Z,2.2
2023-03-06T01:39:08.074Z,2.2
2023-03-06T01:49:08.106Z,2.2
2023-03-06T01:59:08.021Z,2.2
2023-03-06T02:09:08.021Z,2.2
2023-03-06T02:19:07.981Z,2.2
2023-03-06T02:29:07.957Z,2.1
2023-03-06T02:49:07.885Z,1.9
2023-03-06T02:59:07.876Z,1.8
2023-03-06T03:09:07.863Z,1.8
2023-03-06T03:19:07.833Z,1.9
2023-03-06T03:29:07.928Z,1.9
2023-03-06T03:39:07.803Z,1.9
2023-03-06T03:49:07.751Z,1.9
2023-03-06T03:59:07.742Z,1.8
2023-03-06T04:09:07.715Z,1.8
2023-03-06T04:19:07.686Z,1.9
2023-03-06T04:29:07.695Z,2
2023-03-06T04:39:07.669Z,2
2023-03-06T04:49:07.637Z,2
2023-03-06T04:59:07.605Z,2.1
2023-03-06T05:09:07.564Z,2.1
2023-03-06T05:19:07.593Z,2.1
2023-03-06T05:29:07.509Z,2.1
2023-03-06T05:39:07.498Z,2.1
2023-03-06T05:49:07.499Z,2.1
2023-03-06T05:59:07.453Z,2.2
2023-03-06T06:09:07.437Z,2.2
2023-03-06T06:19:07.399Z,2.2
2023-03-06T06:29:07.379Z,2.2
2023-03-06T06:39:07.350Z,2.2
2023-03-06T06:49:07.514Z,2.2
2023-03-06T06:59:07.343Z,2.2
2023-03-06T07:09:07.424Z,2.2
2023-03-06T07:19:07.475Z,2.2
2023-03-06T07:29:07.245Z,2.3
2023-03-06T07:39:07.446Z,2.3
2023-03-06T07:49:07.333Z,2.4
2023-03-06T07:59:07.168Z,2.4
2023-03-06T08:09:07.307Z,2.5
2023-03-06T08:19:07.249Z,2.5
2023-03-06T08:29:07.235Z,2.6
2023-03-06T08:39:07.218Z,2.7
2023-03-06T08:49:07.167Z,2.8
2023-03-06T08:59:07.167Z,2.9
2023-03-06T09:09:06.979Z,2.9
2023-03-06T09:19:07.002Z,3
2023-03-06T09:29:06.966Z,3.2
2023-03-06T09:39:07.119Z,3.3
2023-03-06T09:49:06.985Z,3.5
2023-03-06T09:59:06.962Z,3.6
2023-03-06T10:09:06.968Z,3.5
2023-03-06T10:19:06.898Z,3.4
2023-03-06T10:29:06.844Z,3.6
2023-03-06T10:39:06.922Z,3.7
2023-03-06T10:49:06.828Z,3.7
2023-03-06T10:59:06.820Z,3.8
2023-03-06T11:09:06.709Z,3.8
2023-03-06T11:19:06.861Z,3.8
2023-03-06T11:29:06.659Z,3.6
2023-03-06T11:39:06.722Z,3.4
2023-03-06T11:49:06.757Z,3.1
2023-03-06T11:59:06.648Z,3.1
2023-03-06T12:19:06.515Z,3.4
2023-03-06T12:29:06.509Z,3.6
2023-03-06T12:39:06.474Z,3.6
2023-03-06T12:49:06.434Z,3.6
2023-03-06T12:59:06.604Z,3.6
2023-03-06T13:09:06.469Z,3.2
2023-03-06T13:19:06.420Z,3.1
2023-03-06T13:29:06.375Z,3.3
2023-03-06T13:39:06.449Z,3.3
2023-03-06T13:49:06.306Z,3.3
2023-03-06T13:59:06.289Z,3.3
2023-03-06T14:09:06.345Z,3
2023-03-06T14:19:06.372Z,2.8
2023-03-06T14:29:06.323Z,2.8
2023-03-06T14:39:06.369Z,3
2023-03-06T14:49:06.373Z,3.1
2023-03-06T14:59:06.348Z,3.2
2023-03-06T15:09:06.190Z,3.2
2023-03-06T15:19:06.135Z,3.3
2023-03-06T15:29:06.050Z,3.5
2023-03-06T15:39:06.171Z,3.6
2023-03-06T15:49:06.044Z,3.8
2023-03-06T15:59:06.004Z,3.9
2023-03-06T16:09:05.982Z,3.9
2023-03-06T16:19:05.914Z,3.9
2023-03-06T16:39:05.938Z,3.8
2023-03-06T16:49:05.968Z,3.8
2023-03-06T16:59:05.806Z,3.7
2023-03-06T17:09:05.779Z,3.7
2023-03-06T17:19:05.780Z,3.7
2023-03-06T17:29:05.736Z,3.6
2023-03-06T17:39:05.778Z,3.4
2023-03-06T17:49:05.684Z,3.3
2023-03-06T17:59:05.672Z,3.1
2023-03-06T18:09:05.648Z,3
2023-03-06T18:19:05.602Z,2.8
2023-03-06T18:29:05.599Z,2.8
2023-03-06T18:39:05.576Z,2.7
2023-03-06T18:49:05.529Z,2.7
2023-03-06T18:59:05.499Z,2.7
2023-03-06T19:09:05.579Z,2.7
2023-03-06T19:19:05.480Z,2.8
2023-03-06T19:29:05.460Z,2.9
2023-03-06T19:39:05.442Z,3
2023-03-06T19:49:05.417Z,3.1
2023-03-06T19:59:05.370Z,3.2
2023-03-06T20:09:05.358Z,3.3
2023-03-06T20:19:05.407Z,3.4
2023-03-06T20:29:05.300Z,3.4
2023-03-06T20:39:05.266Z,3.4
2023-03-06T20:49:05.257Z,3.4
2023-03-06T20:59:05.352Z,3.5
2023-03-06T21:09:05.197Z,3.6
2023-03-06T21:19:05.195Z,3.5
2023-03-06T21:29:05.153Z,3.3
2023-03-06T21:39:05.119Z,3.1
2023-03-06T21:49:05.106Z,3
2023-03-06T21:59:53.050Z,2.6
2023-03-06T22:09:06.818Z,2.6
2023-03-06T22:19:06.738Z,2.4
2023-03-06T22:29:06.721Z,2.3
2023-03-06T22:39:06.682Z,2.2
2023-03-06T22:49:06.642Z,2.3
2023-03-06T22:59:06.701Z,2.4
2023-03-06T23:09:06.594Z,2.5
2023-03-06T23:19:06.612Z,2.6
2023-03-06T23:29:06.558Z,2.8
2023-03-06T23:39:06.544Z,2.9
2023-03-06T23:49:06.508Z,3
2023-03-06T23:59:06.476Z,2.9
